createdAt,value
2023-04-30T00:00:19.226Z,6.02
2023-04-30T00:02:48.091Z,6.10
2023-04-30T00:05:17.676Z,6.14
2023-04-30T00:07:46.609Z,6.02
2023-04-30T00:10:16.793Z,6.17
2023-04-30T00:12:48.548Z,6.17
2023-04-30T00:15:18.598Z,6.25
2023-04-30T00:17:47.319Z,6.23
2023-04-30T00:20:16.191Z,6.24
2023-04-30T00:22:44.843Z,6.07
2023-04-30T00:25:13.544Z,6.14
2023-04-30T00:27:43.750Z,6.24
2023-04-30T00:30:13.933Z,6.19
2023-04-30T00:32:46.563Z,6.23
2023-04-30T00:35:15.674Z,6.20
2023-04-30T00:37:44.538Z,6.19
2023-04-30T00:40:15.024Z,6.13
2023-04-30T00:42:45.241Z,6.17
2023-04-30T00:45:14.006Z,6.12
2023-04-30T00:47:43.046Z,6.15
2023-04-30T00:50:16.030Z,6.11
2023-04-30T00:52:46.244Z,6.19
2023-04-30T00:55:15.732Z,6.22
2023-04-30T00:57:46.726Z,6.19
2023-04-30T01:00:16.710Z,6.21
2023-04-30T01:02:47.796Z,6.31
2023-04-30T01:05:16.663Z,6.11
2023-04-30T01:07:46.942Z,6.29
2023-04-30T01:10:16.859Z,6.24
2023-04-30T01:12:58.942Z,6.31
2023-04-30T01:15:41.090Z,6.40
2023-04-30T01:18:18.307Z,6.30
2023-04-30T01:20:54.597Z,6.35
2023-04-30T01:23:42.650Z,6.39
2023-04-30T01:26:16.959Z,6.40
2023-04-30T01:28:51.894Z,6.35
2023-04-30T01:31:21.697Z,6.41
2023-04-30T01:33:50.553Z,6.42
2023-04-30T01:36:46.991Z,6.43
2023-04-30T01:39:34.475Z,6.51
2023-04-30T01:42:15.043Z,6.39
2023-04-30T01:45:12.409Z,6.51
2023-04-30T01:47:50.049Z,6.42
2023-04-30T01:50:35.239Z,6.44
2023-04-30T01:53:08.616Z,6.47
2023-04-30T01:55:44.243Z,6.42
2023-04-30T01:58:16.016Z,6.54
2023-04-30T02:00:46.396Z,6.49
2023-04-30T02:03:15.160Z,6.49
2023-04-30T02:05:44.091Z,6.52
2023-04-30T02:08:12.915Z,6.64
2023-04-30T02:10:42.001Z,6.63
2023-04-30T02:13:10.958Z,6.53
2023-04-30T02:15:39.707Z,6.52
2023-04-30T02:18:10.010Z,6.55
2023-04-30T02:20:38.819Z,6.52
2023-04-30T02:23:09.885Z,6.60
2023-04-30T02:25:39.179Z,6.72
2023-04-30T02:28:08.530Z,6.67
2023-04-30T02:30:37.390Z,6.71
2023-04-30T02:33:06.104Z,6.78
2023-04-30T02:35:36.195Z,6.75
2023-04-30T02:38:05.049Z,6.89
2023-04-30T02:40:33.798Z,7.10
2023-04-30T02:43:02.494Z,7.14
2023-04-30T02:45:33.143Z,7.15
2023-04-30T02:48:02.011Z,7.16
2023-04-30T02:50:30.854Z,7.08
2023-04-30T02:53:01.208Z,7.14
2023-04-30T02:55:30.194Z,7.12
2023-04-30T02:57:58.918Z,7.05
2023-04-30T03:00:27.691Z,7.13
2023-04-30T03:02:56.707Z,7.15
2023-04-30T03:05:25.776Z,7.16
2023-04-30T03:07:54.544Z,7.20
2023-04-30T03:10:24.689Z,7.19
2023-04-30T03:12:54.235Z,7.24
2023-04-30T03:15:23.102Z,7.31
2023-04-30T03:17:51.866Z,7.37
2023-04-30T03:20:20.872Z,7.36
2023-04-30T03:22:49.561Z,7.47
2023-04-30T03:25:18.453Z,7.42
2023-04-30T03:27:49.973Z,7.50
2023-04-30T03:30:18.663Z,7.47
2023-04-30T03:32:47.591Z,7.53
2023-04-30T03:35:16.551Z,7.54
2023-04-30T03:37:45.226Z,7.56
2023-04-30T03:40:14.732Z,7.76
2023-04-30T03:42:43.695Z,7.92
2023-04-30T03:45:13.991Z,8.06
2023-04-30T03:47:43.674Z,8.17
2023-04-30T03:50:12.768Z,8.32
2023-04-30T03:52:41.483Z,8.45
2023-04-30T03:55:11.694Z,8.42
2023-04-30T03:57:41.898Z,8.51
2023-04-30T04:00:15.029Z,8.60
2023-04-30T04:02:47.178Z,8.80
2023-04-30T04:05:16.461Z,8.84
2023-04-30T04:07:46.760Z,9.02
2023-04-30T04:10:15.923Z,9.07
2023-04-30T04:12:44.971Z,9.12
2023-04-30T04:15:15.456Z,9.26
2023-04-30T04:17:44.190Z,9.33
2023-04-30T04:20:14.548Z,9.35
2023-04-30T04:22:44.218Z,9.35
2023-04-30T04:25:14.036Z,9.38
2023-04-30T04:27:44.991Z,9.40
2023-04-30T04:30:15.689Z,9.42
2023-04-30T04:32:49.419Z,9.47
2023-04-30T04:35:20.745Z,9.52
2023-04-30T04:37:49.787Z,9.63
2023-04-30T04:40:18.670Z,9.67
2023-04-30T04:42:49.886Z,9.73
2023-04-30T04:45:20.626Z,9.73
2023-04-30T04:47:52.041Z,9.81
2023-04-30T04:50:21.149Z,9.86
2023-04-30T04:52:50.144Z,9.98
2023-04-30T04:55:19.240Z,9.94
2023-04-30T04:57:49.507Z,10.12
2023-04-30T05:00:22.215Z,10.25
2023-04-30T05:02:51.495Z,10.32
2023-04-30T05:05:20.479Z,10.37
2023-04-30T05:07:52.466Z,10.42
2023-04-30T05:10:21.760Z,10.45
2023-04-30T05:12:50.442Z,10.55
2023-04-30T05:15:20.680Z,10.57
2023-04-30T05:17:49.401Z,10.73
2023-04-30T05:20:18.398Z,10.93
2023-04-30T05:22:47.045Z,10.92
2023-04-30T05:25:15.863Z,10.97
2023-04-30T05:27:44.567Z,11.01
2023-04-30T05:30:19.814Z,11.17
2023-04-30T05:32:52.655Z,11.22
2023-04-30T05:35:21.833Z,11.17
2023-04-30T05:37:51.244Z,11.34
2023-04-30T05:40:28.240Z,11.34
2023-04-30T05:42:57.148Z,11.69
2023-04-30T05:45:25.917Z,11.85
2023-04-30T05:47:57.338Z,11.94
2023-04-30T05:50:36.734Z,12.20
2023-04-30T05:53:06.938Z,12.38
2023-04-30T05:55:35.696Z,12.57
2023-04-30T05:58:04.440Z,12.76
2023-04-30T06:00:33.277Z,12.85
2023-04-30T06:03:03.671Z,13.03
2023-04-30T06:05:32.382Z,13.12
2023-04-30T06:08:04.998Z,13.27
2023-04-30T06:10:47.619Z,13.18
2023-04-30T06:13:16.667Z,13.27
2023-04-30T06:15:46.653Z,13.43
2023-04-30T06:18:20.116Z,13.40
2023-04-30T06:20:51.787Z,13.39
2023-04-30T06:23:20.996Z,13.36
2023-04-30T06:25:50.161Z,13.41
2023-04-30T06:28:19.402Z,13.42
2023-04-30T06:30:52.450Z,13.53
2023-04-30T06:33:24.522Z,13.66
2023-04-30T06:35:57.446Z,13.69
2023-04-30T06:38:30.136Z,13.85
2023-04-30T06:41:00.955Z,13.97
2023-04-30T06:43:32.015Z,14.03
2023-04-30T06:46:03.549Z,14.15
2023-04-30T06:48:35.123Z,14.17
2023-04-30T06:51:03.816Z,14.12
2023-04-30T06:53:41.598Z,14.09
2023-04-30T06:56:10.642Z,14.22
2023-04-30T06:58:47.454Z,14.30
2023-04-30T07:01:17.455Z,14.53
2023-04-30T07:03:47.890Z,14.60
2023-04-30T07:06:17.527Z,14.73
2023-04-30T07:08:46.380Z,14.73
2023-04-30T07:11:15.162Z,14.72
2023-04-30T07:13:43.793Z,14.74
2023-04-30T07:16:12.597Z,14.85
2023-04-30T07:18:41.544Z,14.76
2023-04-30T07:21:11.757Z,14.72
2023-04-30T07:23:44.196Z,14.74
2023-04-30T07:26:13.849Z,14.72
2023-04-30T07:28:47.673Z,14.59
2023-04-30T07:31:16.339Z,14.57
2023-04-30T07:33:46.794Z,14.42
2023-04-30T07:36:16.881Z,14.32
2023-04-30T07:38:45.609Z,14.15
2023-04-30T07:41:14.745Z,14.09
2023-04-30T07:43:43.461Z,14.16
2023-04-30T07:46:12.226Z,14.14
2023-04-30T07:48:41.377Z,14.04
2023-04-30T07:51:10.186Z,14.04
2023-04-30T07:53:40.245Z,14.09
2023-04-30T07:56:10.129Z,14.04
2023-04-30T07:58:38.935Z,13.97
2023-04-30T08:01:09.570Z,13.93
2023-04-30T08:03:41.730Z,13.97
2023-04-30T08:06:10.531Z,13.91
2023-04-30T08:08:41.316Z,13.94
2023-04-30T08:11:10.230Z,13.86
2023-04-30T08:13:38.876Z,13.86
2023-04-30T08:16:07.798Z,13.82
2023-04-30T08:18:38.814Z,13.90
2023-04-30T08:21:07.731Z,14.00
2023-04-30T08:23:36.396Z,14.11
2023-04-30T08:26:10.217Z,14.02
2023-04-30T08:28:38.993Z,14.09
2023-04-30T08:31:08.384Z,14.20
2023-04-30T08:33:37.138Z,14.09
2023-04-30T08:36:08.822Z,14.10
2023-04-30T08:38:37.501Z,14.04
2023-04-30T08:41:13.653Z,14.01
2023-04-30T08:44:01.848Z,13.94
2023-04-30T08:46:44.648Z,13.94
2023-04-30T08:49:17.165Z,13.94
2023-04-30T08:51:46.815Z,14.02
2023-04-30T08:54:19.886Z,14.12
2023-04-30T08:56:52.101Z,14.17
2023-04-30T08:59:21.373Z,14.27
2023-04-30T09:01:53.626Z,14.25
2023-04-30T09:04:23.277Z,14.30
2023-04-30T09:07:14.513Z,14.30
2023-04-30T09:09:44.727Z,14.10
2023-04-30T09:15:12.291Z,14.02
2023-04-30T09:17:42.610Z,13.94
2023-04-30T09:20:15.636Z,13.72
2023-04-30T09:22:45.970Z,13.51
2023-04-30T09:25:17.854Z,13.30
2023-04-30T09:27:48.891Z,13.25
2023-04-30T09:30:33.870Z,13.20
2023-04-30T09:33:03.213Z,13.14
2023-04-30T09:35:33.645Z,13.04
2023-04-30T09:38:05.751Z,12.81
2023-04-30T09:40:38.855Z,12.86
2023-04-30T09:43:11.150Z,12.83
2023-04-30T09:45:44.770Z,12.79
2023-04-30T09:48:17.594Z,12.78
2023-04-30T09:50:47.717Z,12.63
2023-04-30T09:53:18.264Z,12.64
2023-04-30T09:55:56.249Z,12.64
2023-04-30T09:58:30.478Z,12.62
2023-04-30T10:01:03.607Z,12.47
2023-04-30T10:03:37.303Z,12.41
2023-04-30T10:06:08.520Z,12.14
2023-04-30T10:08:49.821Z,12.20
2023-04-30T10:11:22.926Z,12.29
2023-04-30T10:14:01.934Z,12.44
2023-04-30T10:16:42.094Z,12.57
2023-04-30T10:19:31.066Z,12.64
2023-04-30T10:22:03.151Z,12.60
2023-04-30T10:24:50.447Z,12.53
2023-04-30T10:27:21.370Z,12.55
2023-04-30T10:30:02.298Z,12.41
2023-04-30T10:32:47.542Z,12.23
2023-04-30T10:35:26.872Z,12.27
2023-04-30T10:38:22.253Z,12.10
2023-04-30T10:41:25.996Z,12.01
2023-04-30T10:44:05.354Z,11.94
2023-04-30T10:46:37.451Z,11.91
2023-04-30T10:49:07.777Z,11.86
2023-04-30T10:51:54.962Z,11.92
2023-04-30T10:54:28.792Z,11.87
2023-04-30T10:57:12.850Z,11.93
2023-04-30T10:59:46.918Z,11.86
2023-04-30T11:02:21.387Z,11.87
2023-04-30T11:05:13.488Z,11.73
2023-04-30T11:07:53.144Z,11.64
2023-04-30T11:10:25.381Z,11.46
2023-04-30T11:12:56.770Z,11.36
2023-04-30T11:15:28.348Z,11.27
2023-04-30T11:18:01.012Z,11.17
2023-04-30T11:20:41.594Z,11.20
2023-04-30T11:23:22.206Z,11.24
2023-04-30T11:26:01.720Z,11.22
2023-04-30T11:28:36.775Z,11.17
2023-04-30T11:31:08.660Z,11.05
2023-04-30T11:33:43.313Z,10.86
2023-04-30T11:36:17.237Z,10.83
2023-04-30T11:38:54.826Z,10.64
2023-04-30T11:41:28.209Z,10.67
2023-04-30T11:43:56.899Z,10.68
2023-04-30T11:46:27.547Z,10.75
2023-04-30T11:49:11.863Z,10.79
2023-04-30T11:51:59.493Z,10.76
2023-04-30T11:54:32.187Z,10.75
2023-04-30T11:57:04.405Z,10.80
2023-04-30T11:59:33.892Z,10.86
2023-04-30T12:02:02.641Z,10.77
2023-04-30T12:04:33.687Z,10.71
2023-04-30T12:07:03.346Z,10.67
2023-04-30T12:09:34.488Z,10.52
2023-04-30T12:12:08.946Z,10.47
2023-04-30T12:14:39.955Z,10.52
2023-04-30T12:17:08.992Z,10.63
2023-04-30T12:19:39.061Z,10.64
2023-04-30T12:22:09.038Z,10.73
2023-04-30T12:24:37.937Z,10.83
2023-04-30T12:27:06.678Z,10.79
2023-04-30T12:29:36.854Z,10.82
2023-04-30T12:32:10.464Z,10.74
2023-04-30T12:34:41.552Z,10.68
2023-04-30T12:37:23.003Z,10.77
2023-04-30T12:39:51.757Z,10.80
2023-04-30T12:42:21.379Z,10.99
2023-04-30T12:44:51.235Z,11.06
2023-04-30T12:47:43.531Z,11.06
2023-04-30T12:50:14.649Z,10.77
2023-04-30T12:52:52.954Z,10.66
2023-04-30T12:55:23.438Z,10.52
2023-04-30T12:58:09.763Z,10.44
2023-04-30T13:00:49.591Z,10.42
2023-04-30T13:03:23.432Z,10.45
2023-04-30T13:05:54.827Z,10.50
2023-04-30T13:08:23.764Z,10.47
2023-04-30T13:10:56.969Z,10.50
2023-04-30T13:13:25.744Z,10.59
2023-04-30T13:15:58.365Z,10.68
2023-04-30T13:18:27.328Z,10.77
2023-04-30T13:20:58.438Z,10.81
2023-04-30T13:23:27.213Z,10.79
2023-04-30T13:25:56.625Z,10.93
2023-04-30T13:28:25.390Z,11.20
2023-04-30T13:30:54.344Z,11.31
2023-04-30T13:33:23.178Z,11.43
2023-04-30T13:35:52.164Z,11.52
2023-04-30T13:38:22.369Z,11.63
2023-04-30T13:40:51.183Z,11.67
2023-04-30T13:43:20.042Z,11.75
2023-04-30T13:47:03.537Z,11.72
2023-04-30T13:49:32.438Z,11.75
2023-04-30T13:52:01.242Z,11.81
2023-04-30T13:54:31.516Z,11.77
2023-04-30T13:57:01.772Z,11.83
2023-04-30T13:59:32.713Z,11.90
2023-04-30T14:02:01.950Z,11.97
2023-04-30T14:04:31.766Z,11.95
2023-04-30T14:07:13.251Z,12.01
2023-04-30T14:09:43.337Z,12.05
2023-04-30T14:12:12.314Z,12.10
2023-04-30T14:14:41.987Z,12.16
2023-04-30T14:17:13.173Z,12.22
2023-04-30T14:19:49.532Z,12.36
2023-04-30T14:22:26.177Z,12.56
2023-04-30T14:24:57.205Z,12.86
2023-04-30T14:27:26.332Z,13.18
2023-04-30T14:30:06.357Z,13.37
2023-04-30T14:32:39.127Z,13.43
2023-04-30T14:35:21.994Z,13.53
2023-04-30T14:38:01.193Z,13.57
2023-04-30T14:40:38.246Z,13.62
2023-04-30T14:43:14.828Z,13.68
2023-04-30T14:45:47.566Z,13.67
2023-04-30T14:48:19.112Z,13.58
2023-04-30T14:50:52.688Z,13.55
2023-04-30T14:53:24.852Z,13.50
2023-04-30T14:56:10.132Z,13.60
2023-04-30T14:58:38.873Z,13.46
2023-04-30T15:01:08.870Z,13.43
2023-04-30T15:03:40.780Z,13.38
2023-04-30T15:06:20.041Z,13.46
2023-04-30T15:08:53.891Z,13.43
2023-04-30T15:11:24.504Z,13.27
2023-04-30T15:13:54.631Z,13.07
2023-04-30T15:16:23.756Z,12.88
2023-04-30T15:18:53.031Z,12.83
2023-04-30T15:21:22.892Z,12.03
2023-04-30T15:23:54.455Z,11.28
2023-04-30T15:26:37.429Z,10.99
2023-04-30T15:29:06.772Z,10.85
2023-04-30T15:31:38.644Z,10.58
2023-04-30T15:34:08.062Z,10.34
2023-04-30T15:36:37.403Z,10.29
2023-04-30T15:39:10.348Z,10.15
2023-04-30T15:41:40.559Z,9.62
2023-04-30T15:44:18.338Z,9.69
2023-04-30T15:46:56.259Z,9.69
2023-04-30T15:49:25.699Z,9.71
2023-04-30T15:51:57.760Z,9.64
2023-04-30T15:54:30.339Z,9.37
2023-04-30T15:57:21.774Z,9.27
2023-04-30T15:59:53.147Z,9.33
2023-04-30T16:02:23.127Z,9.32
2023-04-30T16:04:52.190Z,9.42
2023-04-30T16:07:24.010Z,9.24
2023-04-30T16:10:00.754Z,9.15
2023-04-30T16:12:34.300Z,9.10
2023-04-30T16:15:04.799Z,9.03
2023-04-30T16:17:36.805Z,9.09
2023-04-30T16:20:19.938Z,9.22
2023-04-30T16:22:52.931Z,9.13
2023-04-30T16:25:27.333Z,8.91
2023-04-30T16:27:58.532Z,8.89
2023-04-30T16:30:29.342Z,8.99
2023-04-30T16:32:59.814Z,9.05
2023-04-30T16:35:37.102Z,8.89
2023-04-30T16:38:10.969Z,8.84
2023-04-30T16:40:43.483Z,8.74
2023-04-30T16:43:13.614Z,9.04
2023-04-30T16:45:44.162Z,8.99
2023-04-30T16:48:17.856Z,8.93
2023-04-30T16:50:50.497Z,8.80
2023-04-30T16:53:21.890Z,8.77
2023-04-30T16:55:53.853Z,8.63
2023-04-30T16:58:25.996Z,8.46
2023-04-30T17:00:56.961Z,8.33
2023-04-30T17:03:30.774Z,7.88
2023-04-30T17:06:06.663Z,7.75
2023-04-30T17:08:36.292Z,7.69
2023-04-30T17:11:06.411Z,7.65
2023-04-30T17:13:38.894Z,7.62
2023-04-30T17:16:07.904Z,7.62
2023-04-30T17:18:37.287Z,7.58
2023-04-30T17:21:06.028Z,7.51
2023-04-30T17:23:34.929Z,7.59
2023-04-30T17:26:04.215Z,7.56
2023-04-30T17:28:33.829Z,7.49
2023-04-30T17:31:06.862Z,7.28
2023-04-30T17:33:35.899Z,7.44
2023-04-30T17:36:04.636Z,7.37
2023-04-30T17:38:33.593Z,7.35
2023-04-30T17:41:02.345Z,7.35
2023-04-30T17:43:31.321Z,7.25
2023-04-30T17:46:00.042Z,7.14
2023-04-30T17:48:31.135Z,6.96
2023-04-30T17:51:00.114Z,7.11
2023-04-30T17:53:28.754Z,7.01
2023-04-30T17:55:59.345Z,7.04
2023-04-30T17:58:30.463Z,6.96
2023-04-30T18:01:00.886Z,6.97
2023-04-30T18:03:36.351Z,6.90
2023-04-30T18:06:10.567Z,7.12
2023-04-30T18:08:39.256Z,7.09
2023-04-30T18:11:08.727Z,7.06
2023-04-30T18:13:38.062Z,7.13
2023-04-30T18:16:08.291Z,7.13
2023-04-30T18:18:38.462Z,7.16
2023-04-30T18:21:08.644Z,7.17
2023-04-30T18:23:37.713Z,7.19
2023-04-30T18:26:08.941Z,7.15
2023-04-30T18:28:38.951Z,7.29
2023-04-30T18:31:22.102Z,7.26
2023-04-30T18:33:52.180Z,7.25
2023-04-30T18:36:20.973Z,7.20
2023-04-30T18:38:50.166Z,7.16
2023-04-30T18:41:18.870Z,7.00
2023-04-30T18:43:47.722Z,7.09
2023-04-30T18:46:17.042Z,6.98
2023-04-30T18:48:45.739Z,6.89
2023-04-30T18:51:16.673Z,6.89
2023-04-30T18:53:49.814Z,7.01
2023-04-30T18:56:26.281Z,7.00
2023-04-30T18:59:15.221Z,6.84
2023-04-30T19:01:47.223Z,6.96
2023-04-30T19:04:16.951Z,7.06
2023-04-30T19:06:49.766Z,7.07
2023-04-30T19:09:19.487Z,7.00
2023-04-30T19:11:53.348Z,6.99
2023-04-30T19:14:30.022Z,6.87
2023-04-30T19:17:03.361Z,6.92
2023-04-30T19:19:33.072Z,6.85
2023-04-30T19:22:05.054Z,6.89
2023-04-30T19:24:35.620Z,6.70
2023-04-30T19:27:05.487Z,6.68
2023-04-30T19:29:38.148Z,6.61
2023-04-30T19:32:09.859Z,6.56
2023-04-30T19:34:42.934Z,6.57
2023-04-30T19:37:18.747Z,6.50
2023-04-30T19:39:56.549Z,6.55
2023-04-30T19:42:33.233Z,6.61
2023-04-30T19:45:03.552Z,6.61
2023-04-30T19:47:36.551Z,6.62
2023-04-30T19:50:12.511Z,6.58
2023-04-30T19:52:44.474Z,6.58
2023-04-30T19:55:39.741Z,6.60
2023-04-30T19:58:21.926Z,6.65
2023-04-30T20:01:00.378Z,6.54
2023-04-30T20:03:30.719Z,6.58
2023-04-30T20:06:02.898Z,6.54
2023-04-30T20:08:35.406Z,6.61
2023-04-30T20:11:11.418Z,6.54
2023-04-30T20:13:44.030Z,6.65
2023-04-30T20:16:23.320Z,6.56
2023-04-30T20:18:53.331Z,6.72
2023-04-30T20:21:26.152Z,6.68
2023-04-30T20:23:58.212Z,6.70
2023-04-30T20:26:28.689Z,6.65
2023-04-30T20:28:58.049Z,6.58
2023-04-30T20:31:31.257Z,6.60
2023-04-30T20:34:07.787Z,6.57
2023-04-30T20:36:37.549Z,6.58
2023-04-30T20:39:12.267Z,6.54
2023-04-30T20:41:43.832Z,6.45
2023-04-30T20:44:23.517Z,6.49
2023-04-30T20:47:00.875Z,6.30
2023-04-30T20:49:32.731Z,6.31
2023-04-30T20:52:06.447Z,6.24
2023-04-30T20:54:46.761Z,6.27
2023-04-30T20:57:15.713Z,6.07
2023-04-30T20:59:49.163Z,6.01
2023-04-30T21:02:20.135Z,5.85
2023-04-30T21:04:56.416Z,5.97
2023-04-30T21:07:26.055Z,5.83
2023-04-30T21:09:59.006Z,5.83
2023-04-30T21:12:33.515Z,5.74
2023-04-30T21:15:03.074Z,5.67
2023-04-30T21:17:34.491Z,5.59
2023-04-30T21:20:28.257Z,5.64
2023-04-30T21:23:00.018Z,5.55
2023-04-30T21:25:33.726Z,5.48
2023-04-30T21:28:13.080Z,5.33
2023-04-30T21:30:42.619Z,5.18
2023-04-30T21:33:15.997Z,5.25
2023-04-30T21:35:54.813Z,5.27
2023-04-30T21:38:29.122Z,5.13
2023-04-30T21:41:21.671Z,5.04
2023-04-30T21:43:59.923Z,5.15
2023-04-30T21:46:30.021Z,5.12
2023-04-30T21:48:59.874Z,5.03
2023-04-30T21:51:30.866Z,4.93
2023-04-30T21:54:03.730Z,4.84
2023-04-30T21:56:35.609Z,4.87
2023-04-30T21:59:05.933Z,4.85
2023-04-30T22:01:35.186Z,4.89
2023-04-30T22:04:05.493Z,4.87
2023-04-30T22:06:37.516Z,4.84
2023-04-30T22:09:10.700Z,4.81
2023-04-30T22:11:45.918Z,4.84
2023-04-30T22:14:14.571Z,4.84
2023-04-30T22:16:43.815Z,4.84
2023-04-30T22:19:12.735Z,4.86
2023-04-30T22:21:42.928Z,4.87
2023-04-30T22:24:11.785Z,4.92
2023-04-30T22:26:42.687Z,4.93
2023-04-30T22:29:11.501Z,4.96
2023-04-30T22:31:40.216Z,4.97
2023-04-30T22:34:10.071Z,4.97
2023-04-30T22:36:38.783Z,4.93
2023-04-30T22:39:07.582Z,4.97
2023-04-30T22:41:36.806Z,4.98
2023-04-30T22:44:07.477Z,4.99
2023-04-30T22:46:44.534Z,5.15
2023-04-30T22:49:27.392Z,5.26
2023-04-30T22:51:59.448Z,5.31
2023-04-30T22:54:28.504Z,5.39
2023-04-30T22:56:58.285Z,5.42
2023-04-30T22:59:28.498Z,5.43
2023-04-30T23:01:57.265Z,5.48
2023-04-30T23:04:32.783Z,5.54
2023-04-30T23:07:06.463Z,5.46
2023-04-30T23:09:35.811Z,5.47
2023-04-30T23:12:39.594Z,5.58
2023-04-30T23:15:11.495Z,5.54
2023-04-30T23:17:42.329Z,5.48
2023-04-30T23:20:13.862Z,5.37
2023-04-30T23:22:55.314Z,5.23
2023-04-30T23:25:27.058Z,5.13
2023-04-30T23:27:56.825Z,4.97
2023-04-30T23:30:34.465Z,4.83
2023-04-30T23:33:06.139Z,4.70
2023-04-30T23:35:39.716Z,4.53
2023-04-30T23:38:12.389Z,4.51
2023-04-30T23:40:50.340Z,4.50
2023-04-30T23:43:32.810Z,4.42
2023-04-30T23:46:06.091Z,4.38
2023-04-30T23:48:35.012Z,4.34
2023-04-30T23:51:08.906Z,4.46
2023-04-30T23:53:49.888Z,4.49
2023-04-30T23:56:22.010Z,4.59
2023-04-30T23:58:53.582Z,4.73
